Time;durP1;ratioP1;P1;durP2;ratioP2;P2;SDS_P1;SDS_P2;PMS_P1;PMS_P2;Temp;Humidity;BMP_temperature;BMP_pressure;BME280_temperature;BME280_humidity;BME280_pressure;Samples;Min_cycle;Max_cycle;Signal;HPM_P1;HPM_P2
2023/02/05 00:00:19;;;;;;;12.27;5.00;;;5.00;94.00;;;;;;4901174;28;93787;-78
2023/02/05 00:02:45;;;;;;;13.27;4.47;;;5.00;94.10;;;;;;4898733;28;94095;-80
2023/02/05 00:05:11;;;;;;;13.52;4.85;;;5.00;94.10;;;;;;4897644;28;94001;-81
2023/02/05 00:07:36;;;;;;;10.70;4.45;;;4.90;94.30;;;;;;4918454;28;93263;-81
2023/02/05 00:10:03;;;;;;;9.45;4.32;;;4.90;94.50;;;;;;4914665;28;92418;-79
2023/02/05 00:12:28;;;;;;;10.25;4.45;;;4.90;94.40;;;;;;4918157;28;92167;-81
2023/02/05 00:14:54;;;;;;;11.25;4.10;;;4.80;94.30;;;;;;4913721;28;93633;-82
2023/02/05 00:17:20;;;;;;;9.35;4.22;;;4.80;94.50;;;;;;4913269;28;93145;-80
2023/02/05 00:19:45;;;;;;;11.93;4.47;;;4.70;94.60;;;;;;4914214;28;92394;-81
2023/02/05 00:22:11;;;;;;;10.90;4.43;;;4.80;94.60;;;;;;4914779;28;92806;-80
2023/02/05 00:24:37;;;;;;;11.02;4.50;;;4.80;94.70;;;;;;4907917;28;92958;-81
2023/02/05 00:27:02;;;;;;;11.05;4.18;;;4.80;94.70;;;;;;4917188;28;92370;-80
2023/02/05 00:29:28;;;;;;;11.75;4.47;;;4.80;94.50;;;;;;4915969;28;92371;-80
2023/02/05 00:31:54;;;;;;;9.52;4.03;;;4.80;94.40;;;;;;4916962;28;92165;-81
2023/02/05 00:34:19;;;;;;;8.45;3.50;;;4.80;94.40;;;;;;4914775;28;92414;-80
2023/02/05 00:36:45;;;;;;;9.60;3.67;;;4.80;94.40;;;;;;4897559;28;93322;-81
2023/02/05 00:39:13;;;;;;;8.73;4.13;;;4.80;94.50;;;;;;4915057;28;93448;-80
2023/02/05 00:41:39;;;;;;;9.68;4.07;;;4.70;94.60;;;;;;4896408;28;93772;-81
2023/02/05 00:44:05;;;;;;;11.07;4.15;;;4.70;94.60;;;;;;4904134;28;93492;-81
2023/02/05 00:46:31;;;;;;;8.27;3.95;;;4.70;94.70;;;;;;4918586;28;92874;-81
2023/02/05 00:48:57;;;;;;;7.63;3.97;;;4.70;94.50;;;;;;4923958;28;92049;-80
2023/02/05 00:51:22;;;;;;;9.77;3.72;;;4.70;94.40;;;;;;4908561;28;92432;-80
2023/02/05 00:53:48;;;;;;;11.10;4.15;;;4.80;94.30;;;;;;4914381;28;92655;-81
2023/02/05 00:56:14;;;;;;;12.07;4.32;;;4.80;94.20;;;;;;4921217;28;93214;-81
2023/02/05 00:58:39;;;;;;;11.07;4.18;;;4.70;94.30;;;;;;4915183;28;92652;-81
2023/02/05 01:01:05;;;;;;;9.73;3.58;;;4.70;94.20;;;;;;4919786;28;92588;-81
2023/02/05 01:03:31;;;;;;;9.43;3.95;;;4.60;94.30;;;;;;4920106;28;94588;-82
2023/02/05 01:05:58;;;;;;;10.63;4.18;;;4.60;94.30;;;;;;4917589;28;94712;-80
2023/02/05 01:08:23;;;;;;;10.00;4.00;;;4.60;94.30;;;;;;4920140;28;92972;-82
2023/02/05 01:10:51;;;;;;;7.95;4.05;;;4.50;94.40;;;;;;4915425;28;92460;-79
2023/02/05 01:13:17;;;;;;;9.38;4.50;;;4.50;94.50;;;;;;4916407;28;92358;-84
2023/02/05 01:15:43;;;;;;;10.63;4.10;;;4.40;94.60;;;;;;4915124;28;92586;-83
2023/02/05 01:18:10;;;;;;;9.15;3.90;;;4.40;94.60;;;;;;4921163;28;92653;-81
2023/02/05 01:20:37;;;;;;;11.45;4.40;;;4.30;94.80;;;;;;4916107;28;91671;-82
2023/02/05 01:23:03;;;;;;;10.55;4.10;;;4.30;95.00;;;;;;4919195;28;92773;-83
2023/02/05 01:25:29;;;;;;;10.23;3.70;;;4.20;95.10;;;;;;4916190;28;93389;-81
2023/02/05 01:27:55;;;;;;;11.93;3.78;;;4.10;94.80;;;;;;4916243;28;95056;-81
2023/02/05 01:30:21;;;;;;;9.77;3.92;;;4.00;94.80;;;;;;4914317;28;94149;-83
2023/02/05 01:32:46;;;;;;;10.07;4.07;;;4.00;94.60;;;;;;4915180;28;93175;-83
2023/02/05 01:35:12;;;;;;;7.78;3.25;;;3.90;94.70;;;;;;4914049;28;92797;-81
2023/02/05 01:37:38;;;;;;;9.85;4.30;;;3.80;95.30;;;;;;4927009;28;92172;-81
2023/02/05 01:40:04;;;;;;;8.48;3.95;;;3.80;95.30;;;;;;4920604;28;92417;-81
2023/02/05 01:42:31;;;;;;;11.02;4.40;;;3.80;95.30;;;;;;4921039;28;92756;-81
2023/02/05 01:45:19;;;;;;;12.05;3.92;;;3.70;95.50;;;;;;4915327;28;93467;-82
2023/02/05 01:47:44;;;;;;;9.38;4.00;;;3.70;95.30;;;;;;4924348;28;92631;-83
2023/02/05 01:50:11;;;;;;;9.40;4.00;;;3.70;95.40;;;;;;4914986;28;92601;-81
2023/02/05 01:52:36;;;;;;;10.65;3.83;;;3.60;95.10;;;;;;4916111;28;94677;-82
2023/02/05 01:55:03;;;;;;;12.65;4.43;;;3.60;95.10;;;;;;4932842;28;96449;-81
2023/02/05 01:57:30;;;;;;;10.65;4.18;;;3.50;95.30;;;;;;4923164;28;92449;-80
2023/02/05 01:59:56;;;;;;;11.23;4.68;;;3.50;95.40;;;;;;4915211;28;92539;-81
2023/02/05 02:02:22;;;;;;;10.68;4.63;;;3.50;95.60;;;;;;4917186;28;93824;-81
2023/02/05 02:04:57;;;;;;;10.68;4.07;;;3.40;95.40;;;;;;4914855;28;93089;-81
2023/02/05 02:07:24;;;;;;;10.48;4.00;;;3.30;95.60;;;;;;4920164;28;92534;-81
2023/02/05 02:09:51;;;;;;;8.43;3.75;;;3.30;96.20;;;;;;4912045;28;92706;-81
2023/02/05 02:12:28;;;;;;;8.88;4.10;;;3.20;96.00;;;;;;4921623;28;92724;-82
2023/02/05 02:14:56;;;;;;;;;;;3.20;96.40;;;;;;4922487;28;92405;-81
2023/02/05 02:17:23;;;;;;;9.80;4.10;;;3.20;96.50;;;;;;4914505;28;93502;-81
2023/02/05 02:20:20;;;;;;;12.95;5.55;;;3.10;96.70;;;;;;4912496;28;92458;-82
2023/02/05 02:23:06;;;;;;;;;;;3.10;96.80;;;;;;4913534;28;93287;-81
2023/02/05 02:25:52;;;;;;;9.10;3.80;;;3.00;96.70;;;;;;4919921;28;92851;-80
2023/02/05 02:28:35;;;;;;;10.68;4.13;;;3.00;97.20;;;;;;4931012;28;92979;-80
2023/02/05 02:31:05;;;;;;;10.52;4.38;;;3.00;97.40;;;;;;4917869;28;94341;-80
2023/02/05 02:33:48;;;;;;;8.63;3.63;;;3.00;98.10;;;;;;4924853;28;92683;-80
2023/02/05 02:36:34;;;;;;;11.88;4.65;;;3.10;98.00;;;;;;4917118;28;93226;-81
2023/02/05 02:39:08;;;;;;;10.18;4.15;;;3.20;98.10;;;;;;4909040;28;92518;-79
2023/02/05 02:42:03;;;;;;;9.82;2.88;;;3.20;98.00;;;;;;4915698;28;92507;-80
2023/02/05 02:44:32;;;;;;;8.95;3.88;;;3.20;97.90;;;;;;4908027;28;94406;-81
2023/02/05 02:47:04;;;;;;;9.68;4.10;;;3.10;97.90;;;;;;4918324;28;93675;-79
2023/02/05 02:49:36;;;;;;;11.25;4.40;;;3.10;97.90;;;;;;4916295;28;92570;-81
2023/02/05 02:52:06;;;;;;;11.27;4.35;;;3.00;98.20;;;;;;4919638;28;93558;-80
2023/02/05 02:54:35;;;;;;;13.35;4.50;;;3.00;98.50;;;;;;4914970;28;92710;-81
2023/02/05 02:57:02;;;;;;;10.07;4.13;;;2.90;98.30;;;;;;4923188;28;92367;-80
2023/02/05 02:59:32;;;;;;;11.80;4.80;;;2.90;98.40;;;;;;4913439;28;92601;-80
2023/02/05 03:02:01;;;;;;;11.48;5.03;;;2.90;98.60;;;;;;4916022;28;93522;-83
2023/02/05 03:04:32;;;;;;;10.45;4.63;;;2.80;99.00;;;;;;4908097;28;94068;-80
2023/02/05 03:07:19;;;;;;;10.25;4.72;;;2.80;99.70;;;;;;4918677;28;92499;-81
2023/02/05 03:10:06;;;;;;;11.27;3.65;;;2.70;99.90;;;;;;4927789;28;93285;-80
2023/02/05 03:12:32;;;;;;;11.57;4.95;;;2.60;99.90;;;;;;4926357;28;92501;-79
2023/02/05 03:14:58;;;;;;;11.85;4.95;;;2.60;99.90;;;;;;4922576;28;92759;-79
2023/02/05 03:17:25;;;;;;;12.30;4.70;;;2.50;99.90;;;;;;4925361;28;92843;-78
2023/02/05 03:20:00;;;;;;;13.57;5.28;;;2.50;99.90;;;;;;4903051;28;94107;-79
2023/02/05 03:22:26;;;;;;;14.45;5.13;;;2.40;99.90;;;;;;4913929;28;93399;-81
2023/02/05 03:24:52;;;;;;;13.50;4.95;;;2.40;99.90;;;;;;4895791;28;93210;-79
2023/02/05 03:27:20;;;;;;;14.82;4.72;;;2.40;99.90;;;;;;4915671;28;93112;-79
2023/02/05 03:29:46;;;;;;;15.32;4.25;;;2.40;99.90;;;;;;4916905;28;92673;-78
2023/02/05 03:32:53;;;;;;;10.18;4.45;;;2.40;99.90;;;;;;4917396;28;92279;-79
2023/02/05 03:35:43;;;;;;;10.55;3.78;;;2.40;99.90;;;;;;4908405;28;93728;-78
2023/02/05 03:38:31;;;;;;;9.15;3.70;;;2.40;99.90;;;;;;4917790;28;93255;-77
2023/02/05 03:41:13;;;;;;;11.30;4.30;;;2.40;99.90;;;;;;4915546;28;92607;-79
2023/02/05 03:44:07;;;;;;;12.60;4.25;;;2.30;99.90;;;;;;4914901;28;92348;-79
2023/02/05 03:46:42;;;;;;;11.38;4.07;;;2.30;99.90;;;;;;4915856;28;92546;-79
2023/02/05 03:49:38;;;;;;;13.68;4.85;;;2.30;99.90;;;;;;4916825;28;92680;-79
2023/02/05 03:52:15;;;;;;;12.00;4.00;;;2.20;99.90;;;;;;4914210;28;92439;-81
2023/02/05 03:54:59;;;;;;;;;;;2.20;99.90;;;;;;4918962;28;91838;-79
2023/02/05 03:57:31;;;;;;;11.00;3.83;;;2.20;99.90;;;;;;4917916;28;93435;-80
2023/02/05 03:59:58;;;;;;;13.07;4.13;;;2.10;99.90;;;;;;4920498;28;92871;-78
2023/02/05 04:02:23;;;;;;;10.82;4.00;;;2.10;99.90;;;;;;4919102;28;93344;-82
2023/02/05 04:04:49;;;;;;;12.20;3.67;;;2.00;99.90;;;;;;4925727;28;92367;-79
2023/02/05 04:07:15;;;;;;;12.70;4.22;;;1.90;99.90;;;;;;4921976;28;92556;-78
2023/02/05 04:09:41;;;;;;;12.10;4.03;;;1.90;99.90;;;;;;4925987;28;93994;-79
2023/02/05 04:12:06;;;;;;;12.38;4.30;;;1.90;99.90;;;;;;4917468;28;92579;-81
2023/02/05 04:14:32;;;;;;;10.45;3.55;;;1.90;99.80;;;;;;4921582;28;92937;-79
2023/02/05 04:16:58;;;;;;;10.13;3.85;;;1.80;99.90;;;;;;4915598;28;93193;-79
2023/02/05 04:19:23;;;;;;;11.50;3.88;;;1.80;99.90;;;;;;4915211;28;92966;-82
2023/02/05 04:21:49;;;;;;;13.60;4.28;;;1.80;99.90;;;;;;4910965;28;92686;-82
2023/02/05 04:24:15;;;;;;;11.20;3.67;;;1.70;99.90;;;;;;4911719;28;92537;-82
2023/02/05 04:26:40;;;;;;;9.68;3.80;;;1.60;99.90;;;;;;4909105;28;95306;-80
2023/02/05 04:29:06;;;;;;;11.98;4.10;;;1.70;99.90;;;;;;4912580;28;94363;-80
2023/02/05 04:31:32;;;;;;;10.90;3.85;;;1.60;99.90;;;;;;4911737;28;93885;-81
2023/02/05 04:33:57;;;;;;;9.30;3.00;;;1.60;99.90;;;;;;4905450;28;94149;-80
2023/02/05 04:36:23;;;;;;;11.25;4.07;;;1.50;99.90;;;;;;4912125;28;95299;-80
2023/02/05 04:38:49;;;;;;;9.88;3.55;;;1.50;99.90;;;;;;4915235;28;94218;-78
2023/02/05 04:41:14;;;;;;;9.77;3.35;;;1.60;99.90;;;;;;4913407;28;92548;-78
2023/02/05 04:43:40;;;;;;;11.48;3.88;;;1.50;99.90;;;;;;4912311;28;91446;-78
2023/02/05 04:46:07;;;;;;;12.27;4.20;;;1.60;99.90;;;;;;4912159;28;93345;-81
2023/02/05 04:48:33;;;;;;;11.70;3.97;;;1.60;99.90;;;;;;4911731;28;94226;-80
2023/02/05 04:50:59;;;;;;;11.02;4.10;;;1.60;99.90;;;;;;4911259;28;93574;-80
2023/02/05 04:53:25;;;;;;;10.02;4.15;;;1.70;99.90;;;;;;4920068;28;92399;-79
2023/02/05 04:55:50;;;;;;;11.13;3.92;;;1.60;99.90;;;;;;4911286;28;93164;-79
2023/02/05 04:58:16;;;;;;;11.90;3.67;;;1.60;99.90;;;;;;4910033;28;93836;-79
2023/02/05 05:00:42;;;;;;;11.55;4.18;;;1.60;99.90;;;;;;4913874;28;92853;-79
2023/02/05 05:03:07;;;;;;;17.58;5.68;;;1.60;99.90;;;;;;4901334;28;92783;-81
2023/02/05 05:05:34;;;;;;;16.42;5.22;;;1.60;99.90;;;;;;4912483;28;93212;-78
2023/02/05 05:08:00;;;;;;;12.25;5.20;;;1.50;99.90;;;;;;4907728;28;93645;-79
2023/02/05 05:10:26;;;;;;;16.15;7.68;;;1.50;99.90;;;;;;4909548;28;92332;-81
2023/02/05 05:12:52;;;;;;;20.08;8.30;;;1.60;99.90;;;;;;4912598;28;94125;-79
2023/02/05 05:15:18;;;;;;;15.95;7.05;;;1.60;99.90;;;;;;4901180;28;95188;-80
2023/02/05 05:17:43;;;;;;;24.75;9.00;;;1.70;99.90;;;;;;4918600;28;93501;-80
2023/02/05 05:20:10;;;;;;;22.33;8.20;;;1.70;99.90;;;;;;4923141;28;93508;-80
2023/02/05 05:22:36;;;;;;;19.75;8.27;;;1.70;99.90;;;;;;4917385;28;92419;-85
2023/02/05 05:25:01;;;;;;;20.10;8.25;;;1.70;99.90;;;;;;4916890;28;93276;-85
2023/02/05 05:27:27;;;;;;;22.17;8.10;;;1.70;99.90;;;;;;4916265;28;93722;-86
2023/02/05 05:29:53;;;;;;;25.65;7.65;;;1.60;99.90;;;;;;4922145;28;92430;-78
2023/02/05 05:32:19;;;;;;;25.45;7.32;;;1.60;99.90;;;;;;4913989;28;93189;-79
2023/02/05 05:34:44;;;;;;;51.90;8.93;;;1.60;99.90;;;;;;4919861;28;93455;-79
2023/02/05 05:37:10;;;;;;;25.10;7.47;;;1.50;99.90;;;;;;4913961;28;93726;-78
2023/02/05 05:45:06;;;;;;;16.23;5.18;;;1.40;99.90;;;;;;4916412;28;92399;-78
2023/02/05 05:47:32;;;;;;;17.10;5.57;;;1.50;99.90;;;;;;4916439;28;94433;-83
2023/02/05 05:49:57;;;;;;;15.85;5.53;;;1.50;99.90;;;;;;4920517;28;93770;-79
2023/02/05 05:52:23;;;;;;;14.63;5.28;;;1.50;99.90;;;;;;4915974;28;92448;-78
2023/02/05 05:54:49;;;;;;;15.13;5.00;;;1.40;99.90;;;;;;4926875;28;92771;-81
2023/02/05 05:57:14;;;;;;;14.43;4.78;;;1.40;99.90;;;;;;4914572;28;92515;-79
2023/02/05 05:59:40;;;;;;;14.00;4.90;;;1.30;99.90;;;;;;4917817;28;92361;-79
2023/02/05 06:02:06;;;;;;;12.93;5.05;;;1.30;99.90;;;;;;4916561;28;92718;-80
2023/02/05 06:04:31;;;;;;;13.23;5.18;;;1.30;99.90;;;;;;4920785;28;93395;-79
2023/02/05 06:06:58;;;;;;;9.82;4.40;;;1.30;99.90;;;;;;4912263;28;94544;-80
2023/02/05 06:09:23;;;;;;;12.27;4.82;;;1.30;99.90;;;;;;4913395;28;93107;-80
2023/02/05 06:11:50;;;;;;;13.30;4.20;;;1.20;99.90;;;;;;4915099;28;92586;-79
2023/02/05 06:14:15;;;;;;;11.10;4.25;;;1.30;99.90;;;;;;4916633;28;94187;-78
2023/02/05 06:16:41;;;;;;;14.98;4.10;;;1.30;99.90;;;;;;4914115;28;92989;-78
2023/02/05 06:19:07;;;;;;;10.93;3.45;;;1.30;99.90;;;;;;4914263;28;92400;-79
2023/02/05 06:21:33;;;;;;;12.57;3.95;;;1.40;99.90;;;;;;4915263;28;91549;-80
2023/02/05 06:23:58;;;;;;;12.48;3.80;;;1.40;99.90;;;;;;4921184;28;93506;-82
2023/02/05 06:26:24;;;;;;;10.77;3.25;;;1.40;99.90;;;;;;4918264;28;92685;-78
2023/02/05 06:28:50;;;;;;;10.57;3.33;;;1.50;99.90;;;;;;4914249;28;93433;-81
2023/02/05 06:31:18;;;;;;;11.73;3.83;;;1.50;99.90;;;;;;4916427;28;92151;-79
2023/02/05 06:33:44;;;;;;;12.77;4.15;;;1.50;99.90;;;;;;4915154;28;93733;-81
2023/02/05 06:36:10;;;;;;;9.38;3.90;;;1.60;99.90;;;;;;4912488;28;93063;-80
2023/02/05 06:38:35;;;;;;;13.93;3.95;;;1.70;99.90;;;;;;4922012;28;92047;-80
2023/02/05 06:41:01;;;;;;;7.70;3.28;;;1.70;99.80;;;;;;4913452;28;94013;-81
2023/02/05 06:43:27;;;;;;;11.68;3.63;;;1.70;99.90;;;;;;4917602;28;93218;-79
2023/02/05 06:45:52;;;;;;;10.73;3.58;;;1.90;99.90;;;;;;4917239;28;92960;-81
2023/02/05 06:48:18;;;;;;;12.95;4.78;;;1.90;99.40;;;;;;4918719;28;94292;-82
2023/02/05 06:50:44;;;;;;;11.23;3.38;;;2.00;99.90;;;;;;4918322;28;92390;-82
2023/02/05 06:53:09;;;;;;;9.10;2.70;;;2.10;99.90;;;;;;4918512;28;94268;-88
2023/02/05 06:55:37;;;;;;;7.60;3.08;;;2.20;99.90;;;;;;4928195;28;94389;-85
2023/02/05 06:58:03;;;;;;;9.52;3.22;;;2.20;99.80;;;;;;4917989;28;92516;-85
2023/02/05 07:00:28;;;;;;;11.70;3.17;;;2.30;99.80;;;;;;4929591;28;92397;-86
2023/02/05 07:02:55;;;;;;;11.30;3.50;;;2.40;99.90;;;;;;4917904;28;93225;-84
2023/02/05 07:05:21;;;;;;;10.93;3.03;;;2.40;99.90;;;;;;4927505;28;93401;-79
2023/02/05 07:07:47;;;;;;;9.10;3.30;;;2.40;99.40;;;;;;4917288;28;92453;-79
2023/02/05 07:10:12;;;;;;;10.48;3.50;;;2.50;99.60;;;;;;4931581;28;91592;-77
2023/02/05 07:12:38;;;;;;;10.02;3.08;;;2.50;99.00;;;;;;4919760;28;92695;-82
2023/02/05 07:15:04;;;;;;;8.18;2.88;;;2.60;99.50;;;;;;4909857;28;93048;-81
2023/02/05 07:17:30;;;;;;;8.20;2.92;;;2.60;99.20;;;;;;4916954;28;93151;-81
2023/02/05 07:19:57;;;;;;;12.07;3.83;;;2.70;99.40;;;;;;4928107;28;92106;-84
2023/02/05 07:22:23;;;;;;;11.85;3.97;;;2.70;99.40;;;;;;4916456;28;93698;-83
2023/02/05 07:24:48;;;;;;;10.55;3.40;;;2.70;99.70;;;;;;4923110;28;92309;-80
2023/02/05 07:27:14;;;;;;;13.23;4.00;;;2.70;99.70;;;;;;4919109;28;92625;-80
2023/02/05 07:29:40;;;;;;;11.30;4.28;;;2.70;99.90;;;;;;4929086;28;92348;-81
2023/02/05 07:32:06;;;;;;;14.63;5.07;;;2.70;99.90;;;;;;4920464;28;93957;-82
2023/02/05 07:34:32;;;;;;;13.77;4.60;;;2.80;99.90;;;;;;4928314;28;93080;-79
2023/02/05 07:36:57;;;;;;;12.27;4.32;;;2.90;99.90;;;;;;4920565;28;92242;-82
2023/02/05 07:39:23;;;;;;;12.98;4.60;;;3.00;99.30;;;;;;4927292;28;92674;-82
2023/02/05 07:41:50;;;;;;;16.77;5.10;;;3.10;98.90;;;;;;4917022;28;93959;-84
2023/02/05 07:44:15;;;;;;;14.75;4.88;;;3.20;98.60;;;;;;4924519;28;94435;-81
2023/02/05 07:46:41;;;;;;;14.10;4.18;;;3.40;97.80;;;;;;4913557;28;92558;-82
2023/02/05 07:49:07;;;;;;;10.25;3.80;;;3.50;97.00;;;;;;4921568;28;92390;-81
2023/02/05 07:51:33;;;;;;;10.63;3.33;;;3.70;96.30;;;;;;4916781;28;92433;-82
2023/02/05 07:53:58;;;;;;;12.85;5.30;;;3.70;95.50;;;;;;4926635;28;92429;-82
2023/02/05 07:56:24;;;;;;;11.15;5.28;;;3.90;95.80;;;;;;4921319;28;92475;-84
2023/02/05 07:58:50;;;;;;;12.68;5.57;;;4.20;95.10;;;;;;4914597;28;91930;-82
2023/02/05 08:01:16;;;;;;;25.48;9.90;;;4.30;94.70;;;;;;4915247;28;93222;-82
2023/02/05 08:03:42;;;;;;;16.35;6.90;;;4.60;93.90;;;;;;4915830;28;94107;-85
2023/02/05 08:06:12;;;;;;;12.73;5.30;;;4.70;93.50;;;;;;4918592;28;95180;-82
2023/02/05 08:08:38;;;;;;;10.93;4.88;;;5.00;92.90;;;;;;4913309;28;92569;-83
2023/02/05 08:11:05;;;;;;;13.32;5.55;;;5.20;92.40;;;;;;4920776;28;93682;-85
2023/02/05 08:13:32;;;;;;;12.85;4.97;;;5.30;91.40;;;;;;4914049;28;92600;-82
2023/02/05 08:15:58;;;;;;;16.15;5.80;;;5.40;91.70;;;;;;4911634;28;92638;-81
2023/02/05 08:18:24;;;;;;;10.68;4.53;;;5.50;91.10;;;;;;4911801;28;93797;-80
2023/02/05 08:20:53;;;;;;;11.70;5.07;;;5.70;90.70;;;;;;4910480;28;93154;-80
2023/02/05 08:23:20;;;;;;;12.00;4.65;;;5.60;90.00;;;;;;4909408;28;93453;-80
2023/02/05 08:25:46;;;;;;;11.07;5.22;;;5.80;90.40;;;;;;4916404;28;92391;-81
2023/02/05 08:28:11;;;;;;;11.75;5.32;;;6.00;90.10;;;;;;4914513;28;92553;-81
2023/02/05 08:30:38;;;;;;;10.98;5.40;;;6.30;88.30;;;;;;4911045;28;94606;-82
2023/02/05 08:33:03;;;;;;;13.30;6.90;;;6.50;87.90;;;;;;4907614;28;93333;-82
2023/02/05 08:35:29;;;;;;;14.95;7.70;;;6.80;87.40;;;;;;4911121;28;92556;-80
2023/02/05 08:37:55;;;;;;;13.20;5.78;;;7.10;85.70;;;;;;4913858;28;92905;-81
2023/02/05 08:40:21;;;;;;;13.15;5.85;;;7.00;83.80;;;;;;4914808;28;93279;-80
2023/02/05 08:42:51;;;;;;;11.70;5.95;;;6.70;84.60;;;;;;4909434;28;93119;-80
2023/02/05 08:45:17;;;;;;;10.57;5.38;;;6.40;85.70;;;;;;4910887;28;92703;-79
2023/02/05 08:47:43;;;;;;;11.20;4.35;;;6.40;86.60;;;;;;4913550;28;91618;-79
2023/02/05 08:50:09;;;;;;;9.32;4.30;;;6.50;86.10;;;;;;4923661;28;92730;-81
2023/02/05 08:52:36;;;;;;;11.30;4.32;;;6.50;85.40;;;;;;4912030;28;92649;-83
2023/02/05 08:55:02;;;;;;;11.90;4.07;;;6.40;86.30;;;;;;4922396;28;93320;-84
2023/02/05 08:57:29;;;;;;;11.57;4.25;;;6.30;85.60;;;;;;4912482;28;92552;-82
2023/02/05 08:59:55;;;;;;;10.40;4.43;;;6.30;86.50;;;;;;4914800;28;93830;-84
2023/02/05 09:02:22;;;;;;;10.88;4.50;;;6.10;87.10;;;;;;4914736;28;92625;-84
2023/02/05 09:04:48;;;;;;;12.40;5.07;;;6.10;87.90;;;;;;4915228;28;92468;-82
2023/02/05 09:07:14;;;;;;;11.02;4.60;;;5.90;87.30;;;;;;4908297;28;92448;-82
2023/02/05 09:09:40;;;;;;;11.20;5.05;;;5.80;88.60;;;;;;4914630;28;93480;-81
2023/02/05 09:12:06;;;;;;;11.07;5.15;;;5.70;88.70;;;;;;4915186;28;92502;-82
2023/02/05 09:14:35;;;;;;;10.30;4.55;;;5.60;89.30;;;;;;4917964;28;92454;-81
2023/02/05 09:17:05;;;;;;;10.68;4.93;;;5.60;89.40;;;;;;4910966;28;92776;-86
2023/02/05 09:19:34;;;;;;;;;;;5.60;90.00;;;;;;4922672;28;94366;-83
2023/02/05 09:22:00;;;;;;;12.25;4.60;;;5.80;90.00;;;;;;4915496;28;94213;-84
2023/02/05 09:24:29;;;;;;;11.60;5.10;;;5.80;88.90;;;;;;4923668;28;92582;-82
2023/02/05 09:26:55;;;;;;;13.27;4.55;;;5.90;88.90;;;;;;4922499;28;92511;-81
2023/02/05 09:29:20;;;;;;;11.63;5.15;;;5.90;88.90;;;;;;4920727;28;93182;-85
2023/02/05 09:31:46;;;;;;;10.35;4.93;;;6.00;88.70;;;;;;4915203;28;92935;-84
2023/02/05 09:34:12;;;;;;;14.55;4.82;;;6.10;89.00;;;;;;4922770;28;92358;-81
2023/02/05 09:36:39;;;;;;;13.98;5.82;;;6.20;88.70;;;;;;4911077;28;91871;-84
2023/02/05 09:39:07;;;;;;;11.95;5.10;;;6.10;90.10;;;;;;4911976;28;92647;-82
2023/02/05 09:41:41;;;;;;;14.55;6.60;;;6.60;90.10;;;;;;4915164;28;93605;-85
2023/02/05 09:44:10;;;;;;;15.38;5.88;;;7.00;88.40;;;;;;4917543;28;93581;-83
2023/02/05 09:46:57;;;;;;;14.45;7.30;;;7.40;86.70;;;;;;4917928;28;92682;-82
2023/02/05 09:49:31;;;;;;;14.20;7.85;;;7.80;83.90;;;;;;4916160;28;94117;-83
2023/02/05 09:52:01;;;;;;;15.52;7.28;;;7.70;82.80;;;;;;4908672;28;93090;-81
2023/02/05 09:54:41;;;;;;;17.42;7.20;;;7.50;83.90;;;;;;4919481;28;92738;-83
2023/02/05 09:57:15;;;;;;;14.75;6.65;;;8.00;84.40;;;;;;4911532;28;92591;-81
2023/02/05 09:59:44;;;;;;;13.60;6.32;;;8.20;82.50;;;;;;4917441;28;93849;-82
2023/02/05 10:02:36;;;;;;;12.15;6.05;;;8.50;80.40;;;;;;4916332;28;95477;-84
2023/02/05 10:05:06;;;;;;;14.25;7.10;;;8.90;80.30;;;;;;4919842;28;92663;-84
2023/02/05 10:08:18;;;;;;;12.82;6.63;;;9.40;79.20;;;;;;4918854;28;92326;-86
2023/02/05 10:10:48;;;;;;;15.38;6.30;;;10.40;74.30;;;;;;4896660;28;94643;-81
2023/02/05 10:13:13;;;;;;;10.02;4.53;;;10.60;73.50;;;;;;4912459;28;93236;-82
2023/02/05 10:15:56;;;;;;;10.98;5.63;;;10.60;72.40;;;;;;4905164;28;92543;-81
2023/02/05 10:18:37;;;;;;;10.43;4.80;;;10.30;73.80;;;;;;4908435;28;92498;-83
2023/02/05 10:21:06;;;;;;;8.38;4.38;;;10.00;73.00;;;;;;4918368;28;93140;-81
2023/02/05 10:24:12;;;;;;;9.10;4.07;;;9.90;73.80;;;;;;4915162;28;92849;-80
2023/02/05 10:26:51;;;;;;;9.15;4.13;;;9.90;72.10;;;;;;4904494;28;93692;-82
2023/02/05 10:29:32;;;;;;;7.18;3.30;;;9.70;72.60;;;;;;4922370;28;91747;-83
2023/02/05 10:32:21;;;;;;;6.88;3.40;;;9.30;71.70;;;;;;4911691;28;92393;-83
2023/02/05 10:34:58;;;;;;;7.53;3.50;;;9.20;75.30;;;;;;4918576;28;92923;-81
2023/02/05 10:37:39;;;;;;;10.32;4.35;;;9.30;78.50;;;;;;4918285;28;93837;-80
2023/02/05 10:40:16;;;;;;;7.97;4.10;;;9.20;74.80;;;;;;4924912;28;92361;-80
2023/02/05 10:42:52;;;;;;;6.60;3.35;;;8.90;76.10;;;;;;4920243;28;94224;-81
2023/02/05 10:45:22;;;;;;;7.15;3.40;;;8.60;75.50;;;;;;4927786;28;93891;-80
2023/02/05 10:47:47;;;;;;;8.38;3.28;;;8.50;75.90;;;;;;4924254;28;92078;-79
2023/02/05 10:50:23;;;;;;;6.75;2.80;;;8.30;76.10;;;;;;4916448;28;92104;-81
2023/02/05 10:52:49;;;;;;;6.30;3.17;;;8.00;76.90;;;;;;4921860;28;93927;-81
2023/02/05 10:55:15;;;;;;;6.82;3.13;;;7.90;77.30;;;;;;4925738;28;93070;-83
2023/02/05 10:57:41;;;;;;;7.32;3.10;;;7.70;76.20;;;;;;4924000;28;92547;-82
2023/02/05 11:00:17;;;;;;;13.43;4.22;;;7.70;77.30;;;;;;4928243;28;92407;-79
2023/02/05 11:02:47;;;;;;;11.68;3.47;;;7.80;76.80;;;;;;4941932;28;94424;-81
2023/02/05 11:05:39;;;;;;;14.15;5.30;;;7.90;76.20;;;;;;4929856;28;93746;-83
2023/02/05 11:08:32;;;;;;;14.73;5.70;;;8.00;75.40;;;;;;4911589;28;92087;-77
2023/02/05 11:10:58;;;;;;;5.45;1.95;;;8.20;76.30;;;;;;4924264;28;92408;-80
2023/02/05 11:13:24;;;;;;;15.93;5.72;;;8.30;73.70;;;;;;4922752;28;93471;-79
2023/02/05 11:16:15;;;;;;;9.45;3.10;;;8.60;74.10;;;;;;4924071;28;92946;-79
2023/02/05 11:18:53;;;;;;;7.45;2.33;;;8.50;71.50;;;;;;4908126;28;92007;-82
2023/02/05 11:21:19;;;;;;;5.38;1.10;;;8.30;71.60;;;;;;4928525;28;92060;-79
2023/02/05 11:23:55;;;;;;;8.52;3.22;;;8.30;72.50;;;;;;4918756;28;93271;-83
2023/02/05 11:26:24;;;;;;;9.98;3.90;;;8.30;72.20;;;;;;4932447;28;92859;-82
2023/02/05 11:28:51;;;;;;;8.05;2.75;;;8.30;72.10;;;;;;4904466;28;93442;-81
2023/02/05 11:31:35;;;;;;;7.10;1.40;;;8.40;70.60;;;;;;4927617;28;92089;-80
2023/02/05 11:34:07;;;;;;;7.45;2.30;;;8.30;70.40;;;;;;4942965;28;95108;-79
2023/02/05 11:36:58;;;;;;;7.90;1.70;;;8.30;69.30;;;;;;4928315;28;93251;-80
2023/02/05 11:39:23;;;;;;;5.65;1.52;;;8.30;69.90;;;;;;4917060;28;92469;-83
2023/02/05 11:41:55;;;;;;;6.65;1.50;;;8.20;69.00;;;;;;4908790;28;92605;-85
2023/02/05 11:44:27;;;;;;;1.75;0.57;;;8.10;69.40;;;;;;4979303;23;93205;-79
2023/02/05 11:46:56;;;;;;;6.00;1.00;;;8.10;68.40;;;;;;4963621;28;92840;-79
2023/02/05 11:49:29;;;;;;;3.15;0.70;;;8.20;68.00;;;;;;4963213;28;92021;-80
2023/02/05 11:51:56;;;;;;;5.50;1.23;;;8.30;67.50;;;;;;4958955;28;92620;-79
2023/02/05 11:54:31;;;;;;;5.20;0.80;;;8.20;67.80;;;;;;4961421;28;94137;-78
2023/02/05 11:57:06;;;;;;;6.13;0.77;;;8.40;68.30;;;;;;4951820;28;93863;-78
2023/02/05 12:00:15;;;;;;;5.55;1.00;;;8.50;69.10;;;;;;4962593;28;92015;-78
2023/02/05 12:02:42;;;;;;;6.40;1.13;;;8.60;68.80;;;;;;4960042;28;91921;-78
2023/02/05 12:05:25;;;;;;;7.82;3.10;;;8.50;68.00;;;;;;4956480;28;93651;-79
2023/02/05 12:07:54;;;;;;;;;;;8.70;74.50;;;;;;4946088;28;92391;-80
2023/02/05 12:10:42;;;;;;;11.35;5.35;;;8.60;79.20;;;;;;4944990;28;92050;-85
2023/02/05 12:13:43;;;;;;;13.45;5.25;;;8.40;80.60;;;;;;4952869;28;91703;-84
2023/02/05 12:16:40;;;;;;;11.00;5.20;;;8.40;81.30;;;;;;4952460;28;94435;-80
2023/02/05 12:19:18;;;;;;;11.43;5.32;;;8.40;82.40;;;;;;4953605;28;93494;-84
2023/02/05 12:21:58;;;;;;;10.40;5.07;;;8.40;82.30;;;;;;4953764;28;93398;-82
2023/02/05 12:25:02;;;;;;;11.13;4.93;;;8.40;82.40;;;;;;4956017;28;93266;-79
2023/02/05 12:27:54;;;;;;;8.90;4.57;;;8.30;82.00;;;;;;4947775;28;93649;-84
2023/02/05 12:30:38;;;;;;;11.88;5.18;;;8.20;83.00;;;;;;4957058;28;92596;-80
2023/02/05 12:33:27;;;;;;;16.75;5.47;;;8.00;82.70;;;;;;4955799;28;92365;-80
2023/02/05 12:36:17;;;;;;;9.75;4.88;;;8.10;82.70;;;;;;4957331;28;92510;-78
2023/02/05 12:39:02;;;;;;;;;;;8.00;81.70;;;;;;4950936;28;92493;-80
2023/02/05 12:41:43;;;;;;;12.80;5.07;;;7.90;81.90;;;;;;4960142;28;92581;-82
2023/02/05 12:44:24;;;;;;;10.18;4.25;;;7.90;82.80;;;;;;4959509;28;92491;-81
2023/02/05 12:47:14;;;;;;;11.13;5.13;;;7.80;82.30;;;;;;4951379;28;92163;-81
2023/02/05 12:50:03;;;;;;;14.68;4.80;;;7.60;83.20;;;;;;4956430;28;94144;-81
2023/02/05 12:52:50;;;;;;;9.88;4.80;;;7.60;83.50;;;;;;4944367;28;94685;-85
2023/02/05 12:55:39;;;;;;;12.80;4.30;;;7.50;83.60;;;;;;4951843;28;92538;-83
2023/02/05 12:58:10;;;;;;;10.82;4.43;;;7.40;83.80;;;;;;4946271;28;93058;-81
2023/02/05 13:00:56;;;;;;;11.80;4.32;;;7.30;83.90;;;;;;4951712;28;93088;-82
2023/02/05 13:03:30;;;;;;;10.82;4.72;;;7.20;84.00;;;;;;4951503;28;93338;-81
2023/02/05 13:06:15;;;;;;;12.27;5.40;;;7.20;84.40;;;;;;4958103;28;92349;-81
2023/02/05 13:08:56;;;;;;;10.13;4.65;;;7.10;84.60;;;;;;4948969;28;91840;-80
2023/02/05 13:11:34;;;;;;;14.43;4.60;;;7.10;84.80;;;;;;4959929;28;92906;-79
2023/02/05 13:14:38;;;;;;;10.80;4.72;;;6.90;85.10;;;;;;4957715;28;92853;-80